sensor_id;sensor_type;location;lat;lon;timestamp;pressure;altitude;pressure_sealevel;temperature;humidity
48390;BME280;34643;47.964;7.982;2023-08-31T00:04:10;96301.44;;;19.60;58.64
48390;BME280;34643;47.964;7.982;2023-08-31T00:09:14;96311.06;;;19.59;58.63
48390;BME280;34643;47.964;7.982;2023-08-31T00:14:15;96310.94;;;19.61;58.59
48390;BME280;34643;47.964;7.982;2023-08-31T00:19:15;96307.50;;;19.60;58.43
48390;BME280;34643;47.964;7.982;2023-08-31T00:24:16;96302.13;;;19.62;58.60
48390;BME280;34643;47.964;7.982;2023-08-31T00:29:16;96301.13;;;19.63;58.59
48390;BME280;34643;47.964;7.982;2023-08-31T00:34:17;96308.84;;;19.64;58.39
48390;BME280;34643;47.964;7.982;2023-08-31T00:39:18;96304.75;;;19.62;58.66
48390;BME280;34643;47.964;7.982;2023-08-31T00:44:21;96303.91;;;19.61;58.63
48390;BME280;34643;47.964;7.982;2023-08-31T00:49:22;96310.13;;;19.60;58.61
48390;BME280;34643;47.964;7.982;2023-08-31T00:54:23;96311.06;;;19.59;58.62
48390;BME280;34643;47.964;7.982;2023-08-31T00:59:24;96316.16;;;19.61;58.72
48390;BME280;34643;47.964;7.982;2023-08-31T01:04:36;96300.47;;;19.61;58.80
48390;BME280;34643;47.964;7.982;2023-08-31T01:14:43;96291.94;;;19.59;58.66
48390;BME280;34643;47.964;7.982;2023-08-31T01:19:48;96287.63;;;19.57;58.88
48390;BME280;34643;47.964;7.982;2023-08-31T01:24:49;96296.34;;;19.58;58.82
48390;BME280;34643;47.964;7.982;2023-08-31T01:29:49;96308.59;;;19.57;58.88
48390;BME280;34643;47.964;7.982;2023-08-31T01:34:50;96312.19;;;19.56;58.89
48390;BME280;34643;47.964;7.982;2023-08-31T01:39:56;96309.69;;;19.55;59.00
48390;BME280;34643;47.964;7.982;2023-08-31T01:44:57;96314.81;;;19.56;58.72
48390;BME280;34643;47.964;7.982;2023-08-31T01:49:58;96319.22;;;19.56;58.84
48390;BME280;34643;47.964;7.982;2023-08-31T01:54:59;96315.63;;;19.57;58.79
48390;BME280;34643;47.964;7.982;2023-08-31T02:00:00;96321.84;;;19.56;58.93
48390;BME280;34643;47.964;7.982;2023-08-31T02:05:01;96331.47;;;19.55;58.98
48390;BME280;34643;47.964;7.982;2023-08-31T02:10:02;96333.25;;;19.55;58.80
48390;BME280;34643;47.964;7.982;2023-08-31T02:15:05;96340.16;;;19.56;58.93
48390;BME280;34643;47.964;7.982;2023-08-31T02:20:06;96335.88;;;19.55;58.94
48390;BME280;34643;47.964;7.982;2023-08-31T02:25:09;96342.78;;;19.56;58.71
48390;BME280;34643;47.964;7.982;2023-08-31T02:30:09;96344.56;;;19.55;58.92
48390;BME280;34643;47.964;7.982;2023-08-31T02:35:10;96344.56;;;19.55;58.92
48390;BME280;34643;47.964;7.982;2023-08-31T02:40:12;96340.28;;;19.54;58.83
48390;BME280;34643;47.964;7.982;2023-08-31T02:45:12;96337.81;;;19.53;58.85
48390;BME280;34643;47.964;7.982;2023-08-31T02:50:13;96349.09;;;19.53;58.74
48390;BME280;34643;47.964;7.982;2023-08-31T02:55:13;96335.31;;;19.51;58.73
48390;BME280;34643;47.964;7.982;2023-08-31T03:00:13;96331.75;;;19.52;58.68
48390;BME280;34643;47.964;7.982;2023-08-31T03:05:15;96334.50;;;19.51;58.65
48390;BME280;34643;47.964;7.982;2023-08-31T03:10:16;96337.00;;;19.52;58.77
48390;BME280;34643;47.964;7.982;2023-08-31T03:15:18;96346.75;;;19.50;58.69
48390;BME280;34643;47.964;7.982;2023-08-31T03:20:18;96344.13;;;19.50;58.60
48390;BME280;34643;47.964;7.982;2023-08-31T03:25:19;96340.69;;;19.50;58.66
48390;BME280;34643;47.964;7.982;2023-08-31T03:30:21;96344.13;;;19.50;58.75
48390;BME280;34643;47.964;7.982;2023-08-31T03:35:22;96341.66;;;19.49;58.71
48390;BME280;34643;47.964;7.982;2023-08-31T03:40:27;96346.75;;;19.50;58.81
48390;BME280;34643;47.964;7.982;2023-08-31T03:45:28;96340.84;;;19.48;58.47
48390;BME280;34643;47.964;7.982;2023-08-31T03:50:28;96354.91;;;19.47;58.68
48390;BME280;34643;47.964;7.982;2023-08-31T03:55:28;96358.19;;;19.49;58.46
48390;BME280;34643;47.964;7.982;2023-08-31T04:00:29;96366.19;;;19.48;58.60
48390;BME280;34643;47.964;7.982;2023-08-31T04:05:33;96377.47;;;19.48;58.66
48390;BME280;34643;47.964;7.982;2023-08-31T04:10:37;96378.59;;;19.46;58.94
48390;BME280;34643;47.964;7.982;2023-08-31T04:15:37;96382.16;;;19.45;58.87
48390;BME280;34643;47.964;7.982;2023-08-31T04:20:37;96384.09;;;19.43;58.94
48390;BME280;34643;47.964;7.982;2023-08-31T04:25:38;96394.69;;;19.41;58.90
48390;BME280;34643;47.964;7.982;2023-08-31T04:30:38;96400.59;;;19.43;58.89
48390;BME280;34643;47.964;7.982;2023-08-31T04:35:39;96404.91;;;19.44;58.69
48390;BME280;34643;47.964;7.982;2023-08-31T04:40:40;96405.03;;;19.43;58.68
48390;BME280;34643;47.964;7.982;2023-08-31T04:45:41;96415.50;;;19.43;58.66
48390;BME280;34643;47.964;7.982;2023-08-31T04:50:41;96410.25;;;19.43;58.68
48390;BME280;34643;47.964;7.982;2023-08-31T04:55:42;96403.53;;;19.40;58.70
48390;BME280;34643;47.964;7.982;2023-08-31T05:00:42;96399.09;;;19.41;58.69
48390;BME280;34643;47.964;7.982;2023-08-31T05:05:44;96417.56;;;19.39;58.68
48390;BME280;34643;47.964;7.982;2023-08-31T05:10:47;96421.00;;;19.40;58.49
48390;BME280;34643;47.964;7.982;2023-08-31T05:15:48;96433.25;;;19.39;58.68
48390;BME280;34643;47.964;7.982;2023-08-31T05:20:48;96441.13;;;19.39;58.55
48390;BME280;34643;47.964;7.982;2023-08-31T05:25:48;96455.00;;;19.40;58.41
48390;BME280;34643;47.964;7.982;2023-08-31T05:30:50;96448.16;;;19.38;58.42
48390;BME280;34643;47.964;7.982;2023-08-31T05:35:51;96451.59;;;19.39;58.52
48390;BME280;34643;47.964;7.982;2023-08-31T05:40:51;96459.56;;;19.37;58.44
48390;BME280;34643;47.964;7.982;2023-08-31T05:45:52;96466.47;;;19.38;58.41
48390;BME280;34643;47.964;7.982;2023-08-31T05:50:52;96482.28;;;19.37;58.48
48390;BME280;34643;47.964;7.982;2023-08-31T05:55:54;96486.56;;;19.38;58.25
48390;BME280;34643;47.964;7.982;2023-08-31T06:00:58;96482.28;;;19.37;58.26
48390;BME280;34643;47.964;7.982;2023-08-31T06:05:59;96494.56;;;19.36;58.44
48390;BME280;34643;47.964;7.982;2023-08-31T06:10:59;96496.19;;;19.37;58.34
48390;BME280;34643;47.964;7.982;2023-08-31T06:15:59;96500.63;;;19.37;58.39
48390;BME280;34643;47.964;7.982;2023-08-31T06:21:00;96495.50;;;19.35;58.15
48390;BME280;34643;47.964;7.982;2023-08-31T06:26:00;96499.78;;;19.36;58.13
48390;BME280;34643;47.964;7.982;2023-08-31T06:31:01;96504.06;;;19.37;58.25
48390;BME280;34643;47.964;7.982;2023-08-31T06:36:01;96497.03;;;19.38;58.70
48390;BME280;34643;47.964;7.982;2023-08-31T06:41:02;96498.69;;;19.39;58.42
48390;BME280;34643;47.964;7.982;2023-08-31T06:46:02;96503.09;;;19.38;58.47
48390;BME280;34643;47.964;7.982;2023-08-31T06:51:02;96508.34;;;19.38;58.41
48390;BME280;34643;47.964;7.982;2023-08-31T06:56:04;96519.31;;;19.23;59.00
48390;BME280;34643;47.964;7.982;2023-08-31T07:01:07;96524.56;;;19.02;59.27
48390;BME280;34643;47.964;7.982;2023-08-31T07:06:07;96533.00;;;19.05;59.54
48390;BME280;34643;47.964;7.982;2023-08-31T07:11:08;96532.69;;;18.98;59.48
48390;BME280;34643;47.964;7.982;2023-08-31T07:16:09;96538.13;;;18.86;59.22
48390;BME280;34643;47.964;7.982;2023-08-31T07:21:09;96550.25;;;18.87;58.90
48390;BME280;34643;47.964;7.982;2023-08-31T07:26:09;96547.22;;;18.91;59.40
48390;BME280;34643;47.964;7.982;2023-08-31T07:31:09;96532.78;;;18.87;59.69
48390;BME280;34643;47.964;7.982;2023-08-31T07:36:10;96543.34;;;18.86;59.64
48390;BME280;34643;47.964;7.982;2023-08-31T07:41:10;96556.78;;;18.81;59.23
48390;BME280;34643;47.964;7.982;2023-08-31T07:46:10;96553.81;;;18.86;59.05
48390;BME280;34643;47.964;7.982;2023-08-31T07:51:11;96551.31;;;18.84;59.01
48390;BME280;34643;47.964;7.982;2023-08-31T07:56:12;96561.19;;;18.80;58.51
48390;BME280;34643;47.964;7.982;2023-08-31T08:01:12;96565.25;;;18.73;58.58
48390;BME280;34643;47.964;7.982;2023-08-31T08:06:13;96572.41;;;18.71;58.20
48390;BME280;34643;47.964;7.982;2023-08-31T08:11:14;96571.75;;;18.79;58.25
48390;BME280;34643;47.964;7.982;2023-08-31T08:16:14;96573.63;;;18.67;57.39
48390;BME280;34643;47.964;7.982;2023-08-31T08:21:14;96571.75;;;18.79;57.28
48390;BME280;34643;47.964;7.982;2023-08-31T08:26:15;96582.34;;;18.77;57.53
48390;BME280;34643;47.964;7.982;2023-08-31T08:31:15;96577.56;;;18.61;56.54
48390;BME280;34643;47.964;7.982;2023-08-31T08:36:15;96585.09;;;18.76;56.72
48390;BME280;34643;47.964;7.982;2023-08-31T08:41:21;96593.25;;;18.94;56.71
48390;BME280;34643;47.964;7.982;2023-08-31T08:46:22;96593.41;;;19.02;56.83
48390;BME280;34643;47.964;7.982;2023-08-31T08:51:23;96603.38;;;19.08;56.71
48390;BME280;34643;47.964;7.982;2023-08-31T08:56:23;96604.88;;;19.11;56.84
48390;BME280;34643;47.964;7.982;2023-08-31T09:01:24;96604.75;;;19.12;56.72
48390;BME280;34643;47.964;7.982;2023-08-31T09:06:25;96609.03;;;19.13;56.59
48390;BME280;34643;47.964;7.982;2023-08-31T09:11:27;96614.00;;;19.16;56.58
48390;BME280;34643;47.964;7.982;2023-08-31T09:16:29;96614.00;;;19.16;56.55
48390;BME280;34643;47.964;7.982;2023-08-31T09:21:36;96610.44;;;19.17;56.53
48390;BME280;34643;47.964;7.982;2023-08-31T09:26:39;96605.91;;;19.19;56.65
48390;BME280;34643;47.964;7.982;2023-08-31T09:31:43;96612.81;;;19.21;56.56
48390;BME280;34643;47.964;7.982;2023-08-31T09:36:48;96615.13;;;19.24;56.66
48390;BME280;34643;47.964;7.982;2023-08-31T09:41:53;96608.97;;;19.25;56.55
48390;BME280;34643;47.964;7.982;2023-08-31T09:46:53;96621.06;;;19.26;56.63
48390;BME280;34643;47.964;7.982;2023-08-31T09:51:54;96619.31;;;19.26;56.51
48390;BME280;34643;47.964;7.982;2023-08-31T09:56:55;96625.34;;;19.27;56.58
48390;BME280;34643;47.964;7.982;2023-08-31T10:01:56;96632.25;;;19.28;56.53
48390;BME280;34643;47.964;7.982;2023-08-31T10:06:56;96631.28;;;19.29;56.52
48390;BME280;34643;47.964;7.982;2023-08-31T10:11:57;96637.38;;;19.29;56.48
48390;BME280;34643;47.964;7.982;2023-08-31T10:17:00;96637.22;;;19.31;56.42
48390;BME280;34643;47.964;7.982;2023-08-31T10:22:00;96618.88;;;19.31;56.54
48390;BME280;34643;47.964;7.982;2023-08-31T10:27:17;96624.13;;;19.31;56.32
48390;BME280;34643;47.964;7.982;2023-08-31T10:32:17;96619.63;;;19.33;56.39
48390;BME280;34643;47.964;7.982;2023-08-31T10:37:22;96621.38;;;19.32;56.45
48390;BME280;34643;47.964;7.982;2023-08-31T10:42:23;96621.25;;;19.34;56.33
48390;BME280;34643;47.964;7.982;2023-08-31T10:47:28;96617.69;;;19.35;56.43
48390;BME280;34643;47.964;7.982;2023-08-31T10:52:42;96615.78;;;19.37;56.44
48390;BME280;34643;47.964;7.982;2023-08-31T10:57:42;96615.78;;;19.37;56.66
48390;BME280;34643;47.964;7.982;2023-08-31T11:02:44;96613.16;;;19.37;56.43
48390;BME280;34643;47.964;7.982;2023-08-31T11:07:47;96617.41;;;19.38;56.53
48390;BME280;34643;47.964;7.982;2023-08-31T11:12:51;96620.03;;;19.38;56.49
48390;BME280;34643;47.964;7.982;2023-08-31T11:17:53;96621.69;;;19.39;56.57
48390;BME280;34643;47.964;7.982;2023-08-31T11:22:56;96618.94;;;19.41;56.48
48390;BME280;34643;47.964;7.982;2023-08-31T11:27:59;96617.16;;;19.41;56.53
48390;BME280;34643;47.964;7.982;2023-08-31T11:33:04;96610.28;;;19.40;56.38
48390;BME280;34643;47.964;7.982;2023-08-31T11:38:05;96605.75;;;19.42;56.51
48390;BME280;34643;47.964;7.982;2023-08-31T11:43:05;96609.19;;;19.43;56.39
48390;BME280;34643;47.964;7.982;2023-08-31T11:48:08;96607.38;;;19.43;56.36
48390;BME280;34643;47.964;7.982;2023-08-31T11:53:09;96606.56;;;19.43;56.42
48390;BME280;34643;47.964;7.982;2023-08-31T11:58:09;96610.84;;;19.44;56.33
48390;BME280;34643;47.964;7.982;2023-08-31T12:03:10;96610.00;;;19.43;56.18
48390;BME280;34643;47.964;7.982;2023-08-31T12:08:10;96603.94;;;19.43;56.23
48390;BME280;34643;47.964;7.982;2023-08-31T12:13:14;96609.06;;;19.44;56.09
48390;BME280;34643;47.964;7.982;2023-08-31T12:18:14;96617.59;;;19.46;56.16
48390;BME280;34643;47.964;7.982;2023-08-31T12:23:14;96615.94;;;19.45;56.10
48390;BME280;34643;47.964;7.982;2023-08-31T12:28:19;96602.72;;;19.47;56.06
48390;BME280;34643;47.964;7.982;2023-08-31T12:33:19;96611.41;;;19.47;56.06
48390;BME280;34643;47.964;7.982;2023-08-31T12:38:20;96608.78;;;19.47;56.13
48390;BME280;34643;47.964;7.982;2023-08-31T12:43:20;96594.84;;;19.47;55.97
48390;BME280;34643;47.964;7.982;2023-08-31T12:48:20;96594.84;;;19.47;55.89
48390;BME280;34643;47.964;7.982;2023-08-31T12:53:21;96589.50;;;19.48;55.85
48390;BME280;34643;47.964;7.982;2023-08-31T12:58:22;96579.03;;;19.48;55.82
48390;BME280;34643;47.964;7.982;2023-08-31T13:03:22;96581.63;;;19.48;55.83
48390;BME280;34643;47.964;7.982;2023-08-31T13:08:23;96581.50;;;19.50;55.84
48390;BME280;34643;47.964;7.982;2023-08-31T13:13:23;96584.94;;;19.50;55.83
48390;BME280;34643;47.964;7.982;2023-08-31T13:18:23;96582.34;;;19.50;55.83
48390;BME280;34643;47.964;7.982;2023-08-31T13:23:24;96592.81;;;19.50;55.84
48390;BME280;34643;47.964;7.982;2023-08-31T13:28:25;96586.63;;;19.51;55.79
48390;BME280;34643;47.964;7.982;2023-08-31T13:33:25;96593.66;;;19.51;55.75
48390;BME280;34643;47.964;7.982;2023-08-31T13:38:26;96596.28;;;19.51;55.69
48390;BME280;34643;47.964;7.982;2023-08-31T13:43:26;96596.16;;;19.52;55.67
48390;BME280;34643;47.964;7.982;2023-08-31T13:48:27;96591.72;;;19.53;55.66
48390;BME280;34643;47.964;7.982;2023-08-31T13:53:27;96593.53;;;19.52;55.58
48390;BME280;34643;47.964;7.982;2023-08-31T13:58:27;96578.63;;;19.53;55.82
48390;BME280;34643;47.964;7.982;2023-08-31T14:03:28;96581.94;;;19.55;55.65
48390;BME280;34643;47.964;7.982;2023-08-31T14:08:28;96578.50;;;19.54;55.73
48390;BME280;34643;47.964;7.982;2023-08-31T14:13:28;96577.53;;;19.55;55.79
48390;BME280;34643;47.964;7.982;2023-08-31T14:18:28;96568.72;;;19.56;55.75
48390;BME280;34643;47.964;7.982;2023-08-31T14:23:30;96574.78;;;19.57;55.85
48390;BME280;34643;47.964;7.982;2023-08-31T14:28:30;96571.22;;;19.58;55.89
48390;BME280;34643;47.964;7.982;2023-08-31T14:33:31;96564.88;;;19.61;55.93
48390;BME280;34643;47.964;7.982;2023-08-31T14:38:31;96561.56;;;19.59;55.88
48390;BME280;34643;47.964;7.982;2023-08-31T14:43:32;96572.03;;;19.59;55.98
48390;BME280;34643;47.964;7.982;2023-08-31T14:48:32;96570.13;;;19.61;56.03
48390;BME280;34643;47.964;7.982;2023-08-31T14:53:33;96563.38;;;19.58;56.06
48390;BME280;34643;47.964;7.982;2023-08-31T14:58:33;96577.03;;;19.62;56.12
48390;BME280;34643;47.964;7.982;2023-08-31T15:03:33;96577.97;;;19.61;56.17
48390;BME280;34643;47.964;7.982;2023-08-31T15:08:35;96577.84;;;19.62;56.16
48390;BME280;34643;47.964;7.982;2023-08-31T15:13:35;96565.69;;;19.61;56.25
48390;BME280;34643;47.964;7.982;2023-08-31T15:18:35;96577.84;;;19.62;56.14
48390;BME280;34643;47.964;7.982;2023-08-31T15:23:36;96583.06;;;19.62;56.17
48390;BME280;34643;47.964;7.982;2023-08-31T15:28:36;96578.78;;;19.61;56.07
48390;BME280;34643;47.964;7.982;2023-08-31T15:33:36;96583.06;;;19.62;56.00
48390;BME280;34643;47.964;7.982;2023-08-31T15:38:37;96590.09;;;19.62;56.00
48390;BME280;34643;47.964;7.982;2023-08-31T15:43:37;96586.63;;;19.61;55.99
48390;BME280;34643;47.964;7.982;2023-08-31T15:48:38;96584.03;;;19.61;55.88
48390;BME280;34643;47.964;7.982;2023-08-31T15:53:38;96581.41;;;19.61;55.72
48390;BME280;34643;47.964;7.982;2023-08-31T15:58:39;96577.97;;;19.61;55.69
48390;BME280;34643;47.964;7.982;2023-08-31T16:03:39;96584.19;;;19.60;55.61
48390;BME280;34643;47.964;7.982;2023-08-31T16:08:41;96590.38;;;19.59;55.55
48390;BME280;34643;47.964;7.982;2023-08-31T16:13:41;96592.16;;;19.58;55.43
48390;BME280;34643;47.964;7.982;2023-08-31T16:18:42;96598.22;;;19.59;55.31
48390;BME280;34643;47.964;7.982;2023-08-31T16:23:42;96600.84;;;19.59;55.47
48390;BME280;34643;47.964;7.982;2023-08-31T16:28:42;96591.19;;;19.59;55.40
48390;BME280;34643;47.964;7.982;2023-08-31T16:33:43;96592.16;;;19.58;55.40
48390;BME280;34643;47.964;7.982;2023-08-31T16:38:43;96583.47;;;19.57;55.27
48390;BME280;34643;47.964;7.982;2023-08-31T16:43:43;96601.78;;;19.57;55.26
48390;BME280;34643;47.964;7.982;2023-08-31T16:48:43;96592.16;;;19.58;55.23
48390;BME280;34643;47.964;7.982;2023-08-31T16:53:44;96587.75;;;19.59;55.31
48390;BME280;34643;47.964;7.982;2023-08-31T16:58:44;96584.31;;;19.58;55.29
48390;BME280;34643;47.964;7.982;2023-08-31T17:03:44;96580.03;;;19.57;55.21
48390;BME280;34643;47.964;7.982;2023-08-31T17:08:45;96573.00;;;19.57;55.30
48390;BME280;34643;47.964;7.982;2023-08-31T17:13:45;96577.41;;;19.57;55.32
48390;BME280;34643;47.964;7.982;2023-08-31T17:18:45;96575.59;;;19.57;55.33
48390;BME280;34643;47.964;7.982;2023-08-31T17:23:46;96570.38;;;19.57;55.27
48390;BME280;34643;47.964;7.982;2023-08-31T17:28:46;96571.22;;;19.58;55.36
48390;BME280;34643;47.964;7.982;2023-08-31T17:33:47;96564.19;;;19.59;55.38
48390;BME280;34643;47.964;7.982;2023-08-31T17:38:50;96555.50;;;19.58;55.32
48390;BME280;34643;47.964;7.982;2023-08-31T17:43:50;96561.56;;;19.59;55.46
48390;BME280;34643;47.964;7.982;2023-08-31T17:48:50;96565.00;;;19.59;55.40
48390;BME280;34643;47.964;7.982;2023-08-31T17:53:51;96571.91;;;19.60;55.60
48390;BME280;34643;47.964;7.982;2023-08-31T17:58:54;96580.59;;;19.61;55.58
48390;BME280;34643;47.964;7.982;2023-08-31T18:03:56;96578.09;;;19.59;55.67
48390;BME280;34643;47.964;7.982;2023-08-31T18:08:56;96574.66;;;19.59;55.73
48390;BME280;34643;47.964;7.982;2023-08-31T18:13:57;96579.75;;;19.60;55.64
48390;BME280;34643;47.964;7.982;2023-08-31T18:18:57;96572.03;;;19.59;55.76
48390;BME280;34643;47.964;7.982;2023-08-31T18:23:57;96566.81;;;19.59;55.73
48390;BME280;34643;47.964;7.982;2023-08-31T18:28:58;96568.47;;;19.60;55.69
48390;BME280;34643;47.964;7.982;2023-08-31T18:33:58;96585.00;;;19.60;55.84
48390;BME280;34643;47.964;7.982;2023-08-31T18:38:58;96587.38;;;19.73;55.96
48390;BME280;34643;47.964;7.982;2023-08-31T18:43:59;96583.41;;;19.79;56.04
48390;BME280;34643;47.964;7.982;2023-08-31T18:49:00;96597.22;;;19.81;56.57
48390;BME280;34643;47.964;7.982;2023-08-31T18:54:00;96599.44;;;19.85;56.36
48390;BME280;34643;47.964;7.982;2023-08-31T18:59:00;96598.50;;;19.86;56.29
48390;BME280;34643;47.964;7.982;2023-08-31T19:04:01;96602.19;;;19.84;56.43
48390;BME280;34643;47.964;7.982;2023-08-31T19:09:03;96604.13;;;19.82;56.71
48390;BME280;34643;47.964;7.982;2023-08-31T19:14:03;96611.03;;;19.83;56.91
48390;BME280;34643;47.964;7.982;2023-08-31T19:19:04;96614.34;;;19.85;56.72
48390;BME280;34643;47.964;7.982;2023-08-31T19:24:04;96621.50;;;19.83;56.80
48390;BME280;34643;47.964;7.982;2023-08-31T19:29:05;96621.63;;;19.81;56.80
48390;BME280;34643;47.964;7.982;2023-08-31T19:34:05;96625.31;;;19.79;56.98
48390;BME280;34643;47.964;7.982;2023-08-31T19:39:06;96632.34;;;19.78;57.04
48390;BME280;34643;47.964;7.982;2023-08-31T19:44:06;96635.78;;;19.79;56.93
48390;BME280;34643;47.964;7.982;2023-08-31T19:49:06;96639.41;;;19.78;56.99
48390;BME280;34643;47.964;7.982;2023-08-31T19:54:06;96643.66;;;19.79;56.85
48390;BME280;34643;47.964;7.982;2023-08-31T19:59:08;96645.59;;;19.77;57.00
48390;BME280;34643;47.964;7.982;2023-08-31T20:04:09;96649.03;;;19.77;56.79
48390;BME280;34643;47.964;7.982;2023-08-31T20:09:09;96657.72;;;19.78;56.89
48390;BME280;34643;47.964;7.982;2023-08-31T20:14:10;96643.78;;;19.77;56.84
48390;BME280;34643;47.964;7.982;2023-08-31T20:19:12;96654.25;;;19.77;56.77
48390;BME280;34643;47.964;7.982;2023-08-31T20:24:12;96666.41;;;19.78;56.81
48390;BME280;34643;47.964;7.982;2023-08-31T20:29:13;96664.72;;;19.77;56.80
48390;BME280;34643;47.964;7.982;2023-08-31T20:34:17;96664.72;;;19.77;56.84
48390;BME280;34643;47.964;7.982;2023-08-31T20:39:18;96667.22;;;19.79;56.78
48390;BME280;34643;47.964;7.982;2023-08-31T20:44:18;96663.78;;;19.78;56.52
48390;BME280;34643;47.964;7.982;2023-08-31T20:49:18;96661.28;;;19.77;56.47
48390;BME280;34643;47.964;7.982;2023-08-31T20:54:19;96674.38;;;19.77;56.38
48390;BME280;34643;47.964;7.982;2023-08-31T20:59:20;96677.97;;;19.75;56.37
48390;BME280;34643;47.964;7.982;2023-08-31T21:04:20;96670.94;;;19.76;56.39
48390;BME280;34643;47.964;7.982;2023-08-31T21:09:20;96677.13;;;19.75;56.37
48390;BME280;34643;47.964;7.982;2023-08-31T21:14:21;96675.50;;;19.74;56.45
48390;BME280;34643;47.964;7.982;2023-08-31T21:19:21;96674.50;;;19.75;56.52
48390;BME280;34643;47.964;7.982;2023-08-31T21:24:22;96677.97;;;19.75;56.62
48390;BME280;34643;47.964;7.982;2023-08-31T21:29:22;96673.56;;;19.76;56.61
48390;BME280;34643;47.964;7.982;2023-08-31T21:34:22;96673.69;;;19.74;56.67
48390;BME280;34643;47.964;7.982;2023-08-31T21:39:22;96675.38;;;19.75;56.62
48390;BME280;34643;47.964;7.982;2023-08-31T21:44:23;96671.78;;;19.77;56.53
48390;BME280;34643;47.964;7.982;2023-08-31T21:49:23;96676.19;;;19.76;56.61
48390;BME280;34643;47.964;7.982;2023-08-31T21:54:23;96671.78;;;19.77;56.48
48390;BME280;34643;47.964;7.982;2023-08-31T21:59:24;96683.06;;;19.77;56.48
48390;BME280;34643;47.964;7.982;2023-08-31T22:04:24;96677.13;;;19.75;56.51
48390;BME280;34643;47.964;7.982;2023-08-31T22:09:27;96665.03;;;19.74;56.62
48390;BME280;34643;47.964;7.982;2023-08-31T22:14:28;96670.94;;;19.76;56.51
48390;BME280;34643;47.964;7.982;2023-08-31T22:19:28;96673.56;;;19.76;56.51
48390;BME280;34643;47.964;7.982;2023-08-31T22:24:29;96668.34;;;19.76;56.55
48390;BME280;34643;47.964;7.982;2023-08-31T22:29:29;96658.81;;;19.75;56.52
48390;BME280;34643;47.964;7.982;2023-08-31T22:34:30;96656.19;;;19.75;56.67
48390;BME280;34643;47.964;7.982;2023-08-31T22:39:30;96661.56;;;19.73;56.82
48390;BME280;34643;47.964;7.982;2023-08-31T22:44:31;96649.41;;;19.72;56.78
48390;BME280;34643;47.964;7.982;2023-08-31T22:49:31;96656.44;;;19.72;56.76
48390;BME280;34643;47.964;7.982;2023-08-31T22:54:31;96653.81;;;19.72;56.68
48390;BME280;34643;47.964;7.982;2023-08-31T22:59:34;96658.34;;;19.70;56.73
48390;BME280;34643;47.964;7.982;2023-08-31T23:04:35;96654.06;;;19.69;56.77
48390;BME280;34643;47.964;7.982;2023-08-31T23:09:35;96651.47;;;19.69;56.83
48390;BME280;34643;47.964;7.982;2023-08-31T23:14:35;96651.47;;;19.69;56.81
48390;BME280;34643;47.964;7.982;2023-08-31T23:19:36;96659.31;;;19.69;56.73
48390;BME280;34643;47.964;7.982;2023-08-31T23:24:36;96665.50;;;19.68;56.78
48390;BME280;34643;47.964;7.982;2023-08-31T23:29:36;96661.25;;;19.67;56.77
48390;BME280;34643;47.964;7.982;2023-08-31T23:34:37;96656.00;;;19.67;56.85
48390;BME280;34643;47.964;7.982;2023-08-31T23:39:37;96651.72;;;19.66;56.79
48390;BME280;34643;47.964;7.982;2023-08-31T23:44:38;96649.22;;;19.64;56.70
48390;BME280;34643;47.964;7.982;2023-08-31T23:49:38;96639.56;;;19.65;56.82
48390;BME280;34643;47.964;7.982;2023-08-31T23:54:38;96640.41;;;19.65;56.70
48390;BME280;34643;47.964;7.982;2023-08-31T23:59:39;96634.31;;;19.65;56.75
